Overview Statistics Trail Chart Weather Telemetry Raw packets
 

This is the latest recevied weather packets stored in our database for station/object EA1IWF-10. If no packets are shown the sender has not sent any weather packets the latest 10 day(s).

<< 1 2 3 4 5 6 7 >>
Time Temp. Humidity Pressure Rain* Wind** Luminosity Snow
1788444880 37.78° C 17% 1025.9 hPa - - - -
1788443979 36.67° C 18% 1026 hPa - - - -
1788443078 36.67° C 18% 1026.2 hPa - - - -
1788442178 36.11° C 18% 1026.3 hPa - - - -
1788441277 35° C 19% 1026.4 hPa - - - -
1788440376 34.44° C 22% 1026.5 hPa - - - -
1788439475 33.89° C 25% 1026.7 hPa - - - -
1788438574 33.33° C 27% 1026.9 hPa - - - -
1788437674 32.22° C 27% 1026.9 hPa - - - -
1788436773 31.67° C 31% 1027 hPa - - - -
1788435871 31.67° C 33% 1027.3 hPa - - - -
1788390501 26.67° C 27% 1025.8 hPa - - - -
1788389600 26.67° C 26% 1025.7 hPa - - - -
1788388699 27.78° C 25% 1025.7 hPa - - - -
1788387798 27.78° C 25% 1025.6 hPa - - - -
1788386897 27.78° C 25% 1025.5 hPa - - - -
1788386001 27.78° C 24% 1025.4 hPa - - - -
1788385096 28.33° C 24% 1025.5 hPa - - - -
1788384203 28.33° C 24% 1025.5 hPa - - - -
1788383294 28.33° C 23% 1025.4 hPa - - - -
1788382393 28.89° C 22% 1025.4 hPa - - - -
1788381492 29.44° C 21% 1025.2 hPa - - - -
1788380591 30° C 19% 1024.9 hPa - - - -
1788379690 30.56° C 18% 1024.9 hPa - - - -
1788378790 31.11° C 18% 1024.7 hPa - - - -

* Rain since midnight (hover to see other rain measurements)
** Current wind speed in m/s (hover to see current wind gust speed)